Paisley, Florida
Current Conditions -  °F | °C
As of 11:53 PM on Wednesday 17 Dec 2014 (Local Time) from KLEE Reporting Station
Clear Clear  
Wind Chill: 52°   Ceiling: Unl
Heat Index: 52°   Visibility: 10mi
Dew Point: 45°   Wind: 3mph
Humidity: 77%   Direction: 300°WNW
Pressure: 30.18"   Gusts: NA
Location:  28.98°N, 81.54°W
Report Text: KLEE 180453Z AUTO 30003KT 10SM CLR 11/07 A3018 RMK AO2 SLP217 T01110072 402170106
Loading
Personal Weather Stations






























Interactive Weather Map New forecast layout! Learn more

10-Day Weather Forecast

Advertisements
Track Severe Weather on mobile